Time;durP1;ratioP1;P1;durP2;ratioP2;P2;SDS_P1;SDS_P2;PMS_P1;PMS_P2;Temp;Humidity;BMP_temperature;BMP_pressure;BME280_temperature;BME280_humidity;BME280_pressure;Samples;Min_cycle;Max_cycle;Signal;HPM_P1;HPM_P2
2023/01/10 00:00:21;;;;;;;;;;;4.10;99.90;;;;;;5063162;28;19997;-69
2023/01/10 00:02:48;;;;;;;;;;;4.10;99.90;;;;;;5049641;28;19921;-69
2023/01/10 00:05:14;;;;;;;;;;;4.10;99.90;;;;;;5041361;27;20319;-69
2023/01/10 00:07:41;;;;;;;;;;;4.10;99.90;;;;;;5040527;28;19921;-69
2023/01/10 00:10:09;;;;;;;;;;;4.10;99.90;;;;;;5055733;28;19952;-70
2023/01/10 00:15:22;;;;;;;;;;;4.20;99.90;;;;;;5074102;28;19967;-69
2023/01/10 00:17:48;;;;;;;;;;;4.20;99.90;;;;;;5052349;27;19928;-69
2023/01/10 00:20:15;;;;;;;;;;;4.20;99.90;;;;;;5041556;28;19998;-70
2023/01/10 00:22:42;;;;;;;;;;;4.20;99.90;;;;;;5041567;28;19984;-69
2023/01/10 00:25:09;;;;;;;;;;;4.20;99.90;;;;;;5047383;28;19927;-69
2023/01/10 00:27:35;;;;;;;;;;;4.30;99.90;;;;;;5059957;28;19921;-70
2023/01/10 00:30:12;;;;;;;;;;;4.20;99.90;;;;;;5060646;27;19921;-70
2023/01/10 00:32:39;;;;;;;;;;;4.20;99.90;;;;;;5058366;28;19954;-70
2023/01/10 00:35:07;;;;;;;;;;;4.20;99.90;;;;;;5061339;27;19927;-69
2023/01/10 00:37:33;;;;;;;;;;;4.10;99.90;;;;;;5060484;28;20116;-69
2023/01/10 00:40:00;;;;;;;;;;;4.10;99.90;;;;;;5061029;28;19943;-69
2023/01/10 00:45:12;;;;;;;;;;;4.00;99.90;;;;;;5048831;28;19955;-69
2023/01/10 00:47:38;;;;;;;;;;;4.00;99.90;;;;;;5040015;28;19988;-69
2023/01/10 00:50:07;;;;;;;;;;;4.00;99.90;;;;;;5040331;28;19948;-69
2023/01/10 00:52:34;;;;;;;;;;;4.00;99.90;;;;;;5040481;28;19928;-69
2023/01/10 00:55:00;;;;;;;;;;;4.00;99.90;;;;;;5038122;28;19992;-69
2023/01/10 00:57:27;;;;;;;;;;;4.00;99.90;;;;;;5039976;28;19921;-69
2023/01/10 00:59:53;;;;;;;;;;;4.00;99.90;;;;;;5040734;28;20166;-70
2023/01/10 01:02:21;;;;;;;;;;;4.00;99.90;;;;;;5040542;28;19963;-69
2023/01/10 01:04:48;;;;;;;;;;;4.00;99.90;;;;;;5040459;28;20295;-70
2023/01/10 01:07:18;;;;;;;;;;;4.00;99.90;;;;;;5037109;28;19996;-69
2023/01/10 01:12:25;;;;;;;;;;;4.10;99.90;;;;;;5043256;28;20112;-69
2023/01/10 01:14:52;;;;;;;;;;;4.10;99.90;;;;;;5040228;28;19988;-70
2023/01/10 01:17:18;;;;;;;;;;;4.10;99.90;;;;;;5040077;28;19963;-70
2023/01/10 01:19:46;;;;;;;;;;;4.10;99.90;;;;;;5041095;28;19984;-69
2023/01/10 01:22:14;;;;;;;;;;;4.20;99.90;;;;;;5044374;28;19921;-69
2023/01/10 01:24:41;;;;;;;;;;;4.20;99.90;;;;;;5043974;28;19921;-69
2023/01/10 01:27:08;;;;;;;;;;;4.20;99.90;;;;;;5049871;28;20112;-69
2023/01/10 01:29:34;;;;;;;;;;;4.30;99.90;;;;;;5063810;27;19920;-69
2023/01/10 01:32:01;;;;;;;;;;;4.30;99.90;;;;;;5063725;27;19991;-69
2023/01/10 01:34:27;;;;;;;;;;;4.30;99.90;;;;;;5063639;28;19956;-68
2023/01/10 01:36:57;;;;;;;;;;;4.30;99.90;;;;;;5063000;28;20164;-69
2023/01/10 01:39:26;;;;;;;;;;;4.30;99.90;;;;;;5061422;27;19965;-68
2023/01/10 01:41:59;;;;;;;;;;;4.30;99.90;;;;;;5063568;28;19984;-68
2023/01/10 01:44:29;;;;;;;;;;;4.30;99.90;;;;;;5063461;27;19921;-69
2023/01/10 01:47:00;;;;;;;;;;;4.40;99.90;;;;;;5062844;27;19991;-69
2023/01/10 01:49:26;;;;;;;;;;;4.40;99.90;;;;;;5063646;27;19920;-70
2023/01/10 01:51:55;;;;;;;;;;;4.40;99.90;;;;;;5063605;27;19955;-69
2023/01/10 01:54:23;;;;;;;;;;;4.40;99.90;;;;;;5063382;28;19928;-69
2023/01/10 01:56:51;;;;;;;;;;;4.50;99.90;;;;;;5042967;28;19921;-69
2023/01/10 01:59:20;;;;;;;;;;;4.40;99.90;;;;;;5043057;28;20117;-68
2023/01/10 02:01:49;;;;;;;;;;;4.40;99.90;;;;;;5043564;28;19921;-69
2023/01/10 02:04:18;;;;;;;;;;;4.40;99.90;;;;;;5043126;28;19927;-70
2023/01/10 02:06:45;;;;;;;;;;;4.40;99.90;;;;;;5042495;28;19927;-69
2023/01/10 02:09:15;;;;;;;;;;;4.40;99.90;;;;;;5043469;28;19936;-70
2023/01/10 02:11:43;;;;;;;;;;;4.40;99.90;;;;;;5043354;28;19927;-69
2023/01/10 02:14:10;;;;;;;;;;;4.40;99.90;;;;;;5043435;28;19980;-69
2023/01/10 02:16:37;;;;;;;;;;;4.40;99.90;;;;;;5042632;28;19989;-68
2023/01/10 02:19:06;;;;;;;;;;;4.40;99.90;;;;;;5043267;28;19922;-68
2023/01/10 02:22:03;;;;;;;;;;;4.40;99.90;;;;;;5043132;28;19927;-69
2023/01/10 02:24:56;;;;;;;;;;;4.40;99.90;;;;;;5064510;28;19920;-68
2023/01/10 02:27:26;;;;;;;;;;;4.40;99.90;;;;;;5050411;28;19992;-69
2023/01/10 02:30:13;;;;;;;;;;;4.40;99.90;;;;;;5042769;28;19921;-69
2023/01/10 02:32:43;;;;;;;;;;;4.30;99.90;;;;;;5058508;28;19957;-68
2023/01/10 02:35:18;;;;;;;;;;;4.40;99.90;;;;;;5042912;28;20113;-69
2023/01/10 02:37:50;;;;;;;;;;;4.40;99.90;;;;;;5042506;28;19984;-69
2023/01/10 02:40:21;;;;;;;;;;;4.40;99.90;;;;;;5043045;28;19983;-69
2023/01/10 02:42:52;;;;;;;;;;;4.40;99.90;;;;;;5042988;28;19984;-69
2023/01/10 02:45:23;;;;;;;;;;;4.40;99.90;;;;;;5042847;28;19927;-69
2023/01/10 02:47:51;;;;;;;;;;;4.30;99.90;;;;;;5041920;28;19921;-69
2023/01/10 02:50:32;;;;;;;;;;;4.30;99.90;;;;;;5042725;28;20120;-69
2023/01/10 02:53:00;;;;;;;;;;;4.40;99.90;;;;;;5050590;28;20201;-68
2023/01/10 02:55:32;;;;;;;;;;;4.30;99.90;;;;;;5042925;28;19984;-69
2023/01/10 02:58:05;;;;;;;;;;;4.40;99.90;;;;;;5042247;28;19921;-69
2023/01/10 03:00:37;;;;;;;;;;;4.40;99.90;;;;;;5042678;28;19927;-69
2023/01/10 03:03:13;;;;;;;;;;;4.40;99.90;;;;;;5042414;28;20253;-69
2023/01/10 03:05:46;;;;;;;;;;;4.40;99.90;;;;;;5042491;28;19960;-69
2023/01/10 03:08:18;;;;;;;;;;;4.40;99.90;;;;;;5042065;28;19956;-69
2023/01/10 03:10:47;;;;;;;;;;;4.40;99.90;;;;;;5042081;28;19992;-70
2023/01/10 03:13:16;;;;;;;;;;;4.40;99.90;;;;;;5042581;28;19972;-70
2023/01/10 03:15:44;;;;;;;;;;;4.40;99.90;;;;;;5041729;28;19921;-71
2023/01/10 03:18:14;;;;;;;;;;;4.40;99.90;;;;;;5042261;28;19988;-69
2023/01/10 03:20:42;;;;;;;;;;;4.40;99.90;;;;;;5042209;28;19984;-70
2023/01/10 03:23:09;;;;;;;;;;;4.40;99.90;;;;;;5041795;28;19955;-69
2023/01/10 03:25:37;;;;;;;;;;;4.40;99.90;;;;;;5052227;28;19988;-69
2023/01/10 03:28:05;;;;;;;;;;;4.40;99.90;;;;;;5047684;28;19995;-69
2023/01/10 03:30:35;;;;;;;;;;;4.40;99.90;;;;;;5041761;28;19960;-70
2023/01/10 03:33:03;;;;;;;;;;;4.30;99.90;;;;;;5042206;28;20014;-70
2023/01/10 03:35:34;;;;;;;;;;;4.30;99.90;;;;;;5041954;28;19921;-69
2023/01/10 03:38:06;;;;;;;;;;;4.30;99.90;;;;;;5041724;28;19963;-69
2023/01/10 03:40:35;;;;;;;;;;;4.20;99.90;;;;;;5042173;28;19949;-69
2023/01/10 03:45:49;;;;;;;;;;;4.20;99.90;;;;;;5041360;28;19963;-68
2023/01/10 03:48:17;;;;;;;;;;;4.20;99.90;;;;;;5041655;28;19937;-69
2023/01/10 03:50:46;;;;;;;;;;;4.20;99.90;;;;;;5041495;28;20202;-69
2023/01/10 03:53:13;;;;;;;;;;;4.20;99.90;;;;;;5041751;28;20240;-69
2023/01/10 03:55:41;;;;;;;;;;;4.10;99.90;;;;;;5041533;28;19956;-70
2023/01/10 03:58:08;;;;;;;;;;;4.10;99.90;;;;;;5041439;28;19980;-69
2023/01/10 04:00:35;;;;;;;;;;;4.10;99.90;;;;;;5041459;28;19927;-68
2023/01/10 04:03:01;;;;;;;;;;;4.10;99.90;;;;;;5041525;28;19928;-70
2023/01/10 04:05:28;;;;;;;;;;;4.20;99.90;;;;;;5041667;28;19984;-69
2023/01/10 04:07:56;;;;;;;;;;;4.20;99.90;;;;;;5041273;28;19984;-69
2023/01/10 04:10:25;;;;;;;;;;;4.20;99.90;;;;;;5041537;28;19921;-70
2023/01/10 04:12:52;;;;;;;;;;;4.20;99.90;;;;;;5041258;28;20228;-70
2023/01/10 04:15:19;;;;;;;;;;;4.20;99.90;;;;;;5041720;28;19992;-69
2023/01/10 04:17:47;;;;;;;;;;;4.20;99.90;;;;;;5040942;28;19963;-69
2023/01/10 04:20:13;;;;;;;;;;;4.30;99.90;;;;;;5041366;28;20158;-70
2023/01/10 04:22:40;;;;;;;;;;;4.30;99.90;;;;;;5044850;28;20205;-68
2023/01/10 04:25:08;;;;;;;;;;;4.30;99.90;;;;;;5061181;28;19921;-69
2023/01/10 04:27:35;;;;;;;;;;;4.30;99.90;;;;;;5060290;28;20004;-69
2023/01/10 04:30:02;;;;;;;;;;;4.30;99.90;;;;;;5061128;28;19921;-69
2023/01/10 04:32:28;;;;;;;;;;;4.30;99.90;;;;;;5061076;27;19952;-69
2023/01/10 04:34:55;;;;;;;;;;;4.30;99.90;;;;;;5060756;28;19987;-69
2023/01/10 04:37:21;;;;;;;;;;;4.30;99.90;;;;;;5060738;27;19927;-69
2023/01/10 04:39:48;;;;;;;;;;;4.30;99.90;;;;;;5061034;28;19979;-69
2023/01/10 04:42:17;;;;;;;;;;;4.30;99.90;;;;;;5061126;27;19927;-69
2023/01/10 04:44:43;;;;;;;;;;;4.40;99.90;;;;;;5060633;28;19921;-70
2023/01/10 04:47:10;;;;;;;;;;;4.40;99.90;;;;;;5060513;28;20191;-69
2023/01/10 04:49:37;;;;;;;;;;;4.30;99.90;;;;;;5060546;28;19966;-69
2023/01/10 04:52:03;;;;;;;;;;;4.40;99.90;;;;;;5061101;27;19952;-70
2023/01/10 04:54:30;;;;;;;;;;;4.40;99.90;;;;;;5057636;28;19920;-69
2023/01/10 04:56:56;;;;;;;;;;;4.40;99.90;;;;;;5040373;28;20300;-69
2023/01/10 04:59:24;;;;;;;;;;;4.40;99.90;;;;;;5041127;28;19993;-69
2023/01/10 05:01:59;;;;;;;;;;;4.40;99.90;;;;;;5037842;28;19953;-69
2023/01/10 05:04:26;;;;;;;;;;;4.40;99.90;;;;;;5040877;28;20209;-69
2023/01/10 05:06:52;;;;;;;;;;;4.40;99.90;;;;;;5040187;28;20098;-69
2023/01/10 05:09:20;;;;;;;;;;;4.40;99.90;;;;;;5040300;28;19988;-69
2023/01/10 05:11:58;;;;;;;;;;;4.40;99.90;;;;;;5037769;28;19992;-69
2023/01/10 05:14:26;;;;;;;;;;;4.50;99.90;;;;;;5040461;28;19983;-69
2023/01/10 05:16:54;;;;;;;;;;;4.50;99.90;;;;;;5037203;28;19992;-69
2023/01/10 05:19:21;;;;;;;;;;;4.40;99.90;;;;;;5040414;28;19929;-69
2023/01/10 05:21:48;;;;;;;;;;;4.40;99.90;;;;;;5040564;28;20054;-69
2023/01/10 05:24:15;;;;;;;;;;;4.40;99.90;;;;;;5040159;28;19936;-69
2023/01/10 05:26:42;;;;;;;;;;;4.40;99.90;;;;;;5039408;28;20011;-69
2023/01/10 05:29:10;;;;;;;;;;;4.40;99.90;;;;;;5058051;28;19951;-69
2023/01/10 05:31:37;;;;;;;;;;;4.40;99.90;;;;;;5060130;27;19988;-68
2023/01/10 05:34:04;;;;;;;;;;;4.40;99.90;;;;;;5059897;28;19927;-69
2023/01/10 05:36:31;;;;;;;;;;;4.40;99.90;;;;;;5059508;27;20068;-69
2023/01/10 05:38:57;;;;;;;;;;;4.40;99.90;;;;;;5060357;27;19921;-69
2023/01/10 05:41:24;;;;;;;;;;;4.40;99.90;;;;;;5060128;28;19956;-69
2023/01/10 05:43:52;;;;;;;;;;;4.40;99.90;;;;;;5059662;28;20256;-69
2023/01/10 05:46:28;;;;;;;;;;;4.50;99.90;;;;;;5057467;27;19929;-68
2023/01/10 05:48:55;;;;;;;;;;;4.40;99.90;;;;;;5060131;28;19927;-69
2023/01/10 05:51:22;;;;;;;;;;;4.40;99.90;;;;;;5060242;28;19991;-69
2023/01/10 05:53:49;;;;;;;;;;;4.50;99.90;;;;;;5060254;27;20266;-69
2023/01/10 05:56:15;;;;;;;;;;;4.40;99.90;;;;;;5059130;27;20255;-71
2023/01/10 05:58:42;;;;;;;;;;;4.40;99.90;;;;;;5059924;27;19956;-70
2023/01/10 06:01:09;;;;;;;;;;;4.40;99.90;;;;;;5059751;27;19956;-69
2023/01/10 06:03:36;;;;;;;;;;;4.30;99.90;;;;;;5060124;27;19921;-68
2023/01/10 06:06:04;;;;;;;;;;;4.40;99.90;;;;;;5060351;27;20062;-68
2023/01/10 06:08:30;;;;;;;;;;;4.40;99.90;;;;;;5052149;28;19969;-69
2023/01/10 06:10:57;;;;;;;;;;;4.40;99.90;;;;;;5043329;28;19956;-68
2023/01/10 06:13:24;;;;;;;;;;;4.40;99.90;;;;;;5043507;28;19952;-68
2023/01/10 06:15:51;;;;;;;;;;;4.40;99.90;;;;;;5042761;28;19984;-70
2023/01/10 06:18:17;;;;;;;;;;;4.30;99.90;;;;;;5043048;28;19922;-71
2023/01/10 06:20:44;;;;;;;;;;;4.30;99.90;;;;;;5043110;28;19988;-68
2023/01/10 06:23:12;;;;;;;;;;;4.30;99.90;;;;;;5043170;28;19984;-69
2023/01/10 06:25:40;;;;;;;;;;;4.30;99.90;;;;;;5042623;28;19921;-70
2023/01/10 06:28:07;;;;;;;;;;;4.20;99.90;;;;;;5049933;28;20228;-69
2023/01/10 06:30:34;;;;;;;;;;;4.20;99.90;;;;;;5063059;28;19921;-68
2023/01/10 06:33:01;;;;;;;;;;;4.20;99.90;;;;;;5063087;27;19960;-68
2023/01/10 06:35:28;;;;;;;;;;;4.20;99.90;;;;;;5116093;27;19924;-68
2023/01/10 06:37:54;;;;;;;;;;;4.20;99.90;;;;;;5126170;27;19962;-69
2023/01/10 06:40:22;;;;;;;;;;;4.20;99.90;;;;;;5077710;27;19959;-68
2023/01/10 06:42:49;;;;;;;;;;;4.10;99.90;;;;;;5083218;27;19984;-68
2023/01/10 06:45:16;;;;;;;;;;;4.10;99.90;;;;;;5093567;27;19928;-67
2023/01/10 06:47:44;;;;;;;;;;;4.10;99.90;;;;;;5164843;27;19978;-68
2023/01/10 06:50:11;;;;;;;;;;;4.10;99.90;;;;;;5164575;27;19919;-70
2023/01/10 06:52:38;;;;;;;;;;;4.10;99.90;;;;;;5083552;27;19983;-70
2023/01/10 06:55:05;;;;;;;;;;;4.00;99.90;;;;;;5082747;28;19921;-68
2023/01/10 06:57:34;;;;;;;;;;;4.10;99.90;;;;;;5151540;27;19919;-68
2023/01/10 07:00:01;;;;;;;;;;;4.00;99.90;;;;;;5082816;28;19943;-68
2023/01/10 07:02:28;;;;;;;;;;;4.00;99.90;;;;;;5146107;27;19926;-68
2023/01/10 07:04:54;;;;;;;;;;;4.10;99.90;;;;;;5112823;27;19952;-69
2023/01/10 07:07:21;;;;;;;;;;;4.00;99.90;;;;;;5138383;27;19957;-68
2023/01/10 07:09:47;;;;;;;;;;;4.00;99.90;;;;;;5074719;27;20263;-68
2023/01/10 07:12:14;;;;;;;;;;;4.00;99.90;;;;;;5057204;27;19979;-68
2023/01/10 07:14:51;;;;;;;;;;;4.00;99.90;;;;;;5059691;27;19960;-68
2023/01/10 07:17:17;;;;;;;;;;;4.00;99.90;;;;;;5075745;27;19927;-68
2023/01/10 07:19:44;;;;;;;;;;;4.00;99.90;;;;;;5081873;28;19921;-69
2023/01/10 07:22:13;;;;;;;;;;;3.90;99.90;;;;;;5079969;27;20269;-68
2023/01/10 07:24:40;;;;;;;;;;;4.00;99.90;;;;;;5143748;27;20147;-69
2023/01/10 07:27:07;;;;;;;;;;;4.00;99.90;;;;;;5068380;27;19992;-68
2023/01/10 07:29:34;;;;;;;;;;;4.00;99.90;;;;;;5127828;27;19982;-68
2023/01/10 07:32:02;;;;;;;;;;;4.00;99.90;;;;;;5167073;27;20175;-68
2023/01/10 07:34:28;;;;;;;;;;;4.00;99.90;;;;;;5152602;27;20230;-68
2023/01/10 07:36:55;;;;;;;;;;;3.90;99.90;;;;;;5131771;27;19947;-68
2023/01/10 07:39:21;;;;;;;;;;;4.00;99.90;;;;;;5083158;27;19992;-68
2023/01/10 07:41:49;;;;;;;;;;;4.00;99.90;;;;;;5081738;28;19958;-68
2023/01/10 07:44:15;;;;;;;;;;;4.00;99.90;;;;;;5062520;28;20113;-68
2023/01/10 07:46:42;;;;;;;;;;;4.00;99.90;;;;;;5091265;27;19951;-68
2023/01/10 07:49:10;;;;;;;;;;;4.00;99.90;;;;;;5081767;28;19929;-69
2023/01/10 07:51:36;;;;;;;;;;;4.00;99.90;;;;;;5105027;27;19990;-68
2023/01/10 07:54:03;;;;;;;;;;;4.00;99.90;;;;;;5164442;27;19953;-68
2023/01/10 07:56:38;;;;;;;;;;;4.00;99.90;;;;;;5162004;27;19993;-68
2023/01/10 07:59:04;;;;;;;;;;;4.00;99.90;;;;;;5088943;27;19948;-68
2023/01/10 08:01:33;;;;;;;;;;;4.10;99.90;;;;;;5129857;27;19926;-69
2023/01/10 08:04:00;;;;;;;;;;;4.00;99.90;;;;;;5122602;27;19926;-68
2023/01/10 08:06:28;;;;;;;;;;;4.00;99.90;;;;;;5120464;27;19954;-68
2023/01/10 08:08:54;;;;;;;;;;;4.00;99.90;;;;;;5148874;27;19921;-68
2023/01/10 08:11:21;;;;;;;;;;;4.00;99.90;;;;;;5096211;27;19943;-68
2023/01/10 08:13:48;;;;;;;;;;;4.00;99.90;;;;;;5166570;27;20118;-69
2023/01/10 08:16:15;;;;;;;;;;;4.00;99.90;;;;;;5103121;27;20263;-68
2023/01/10 08:18:42;;;;;;;;;;;4.00;99.90;;;;;;5061952;27;20277;-68
2023/01/10 08:21:08;;;;;;;;;;;4.10;99.90;;;;;;5105496;27;19961;-68
2023/01/10 08:23:36;;;;;;;;;;;4.10;99.90;;;;;;5135303;27;19952;-68
2023/01/10 08:26:04;;;;;;;;;;;4.10;99.90;;;;;;5080701;28;20158;-69
2023/01/10 08:28:31;;;;;;;;;;;4.10;99.90;;;;;;5156174;27;20185;-68
2023/01/10 08:30:58;;;;;;;;;;;4.10;99.90;;;;;;5166111;27;19919;-69
2023/01/10 08:33:26;;;;;;;;;;;4.10;99.90;;;;;;5106466;27;20254;-68
2023/01/10 08:35:54;;;;;;;;;;;4.10;99.90;;;;;;5162721;27;19919;-69
2023/01/10 08:38:21;;;;;;;;;;;4.10;99.90;;;;;;5139040;27;19920;-68
2023/01/10 08:40:49;;;;;;;;;;;4.10;99.90;;;;;;5081997;27;19952;-68
2023/01/10 08:43:16;;;;;;;;;;;4.10;99.90;;;;;;5075430;28;19921;-68
2023/01/10 08:45:43;;;;;;;;;;;4.10;99.90;;;;;;5131268;27;19950;-69
2023/01/10 08:48:09;;;;;;;;;;;4.10;99.90;;;;;;5165441;27;19926;-69
2023/01/10 08:50:36;;;;;;;;;;;4.10;99.90;;;;;;5123840;27;19959;-69
2023/01/10 08:53:03;;;;;;;;;;;4.10;99.90;;;;;;5080873;28;19928;-68
2023/01/10 08:55:30;;;;;;;;;;;4.20;99.90;;;;;;5080394;28;19992;-69
2023/01/10 08:58:00;;;;;;;;;;;4.20;99.90;;;;;;5079895;28;19921;-69
2023/01/10 09:00:27;;;;;;;;;;;4.20;99.90;;;;;;5080691;28;19921;-68
2023/01/10 09:02:53;;;;;;;;;;;4.20;99.90;;;;;;5097977;27;19959;-69
2023/01/10 09:05:20;;;;;;;;;;;4.20;99.90;;;;;;5040329;28;19956;-68
2023/01/10 09:07:47;;;;;;;;;;;4.30;99.90;;;;;;5040144;28;19952;-67
2023/01/10 09:10:13;;;;;;;;;;;4.30;99.90;;;;;;5048711;28;19921;-67
2023/01/10 09:12:55;;;;;;;;;;;4.30;99.90;;;;;;5040657;28;20000;-68
2023/01/10 09:15:23;;;;;;;;;;;4.30;99.90;;;;;;5040673;28;19921;-68
2023/01/10 09:17:52;;;;;;;;;;;4.30;99.90;;;;;;5054742;28;19921;-68
2023/01/10 09:20:19;;;;;;;;;;;4.30;99.90;;;;;;5060176;27;19927;-68
2023/01/10 09:22:45;;;;;;;;;;;4.30;99.90;;;;;;5060313;28;19921;-68
2023/01/10 09:25:12;;;;;;;;;;;4.40;99.90;;;;;;5060237;28;19979;-68
2023/01/10 09:27:39;;;;;;;;;;;4.40;99.90;;;;;;5059834;28;19936;-68
2023/01/10 09:30:06;;;;;;;;;;;4.40;99.90;;;;;;5057987;27;19948;-68
2023/01/10 09:32:34;;;;;;;;;;;4.40;99.90;;;;;;5060307;28;19921;-68
2023/01/10 09:35:00;;;;;;;;;;;4.50;99.90;;;;;;5060302;28;19956;-67
2023/01/10 09:37:27;;;;;;;;;;;4.50;99.90;;;;;;5059774;28;20089;-68
2023/01/10 09:39:54;;;;;;;;;;;4.50;99.90;;;;;;5060340;27;19988;-68
2023/01/10 09:42:28;;;;;;;;;;;4.50;99.90;;;;;;5062759;27;19952;-68
2023/01/10 09:45:01;;;;;;;;;;;4.50;99.90;;;;;;5063556;27;19928;-68
2023/01/10 09:47:34;;;;;;;;;;;4.60;99.90;;;;;;5063382;27;19952;-67
2023/01/10 09:50:06;;;;;;;;;;;4.60;99.90;;;;;;5063953;27;19988;-67
2023/01/10 09:52:34;;;;;;;;;;;4.70;99.90;;;;;;5049429;28;20008;-67
2023/01/10 09:55:04;;;;;;;;;;;4.70;99.90;;;;;;5050763;28;19996;-68
2023/01/10 09:57:31;;;;;;;;;;;4.70;99.90;;;;;;5061081;28;19921;-67
2023/01/10 09:59:58;;;;;;;;;;;4.60;99.90;;;;;;5063773;27;19927;-67
2023/01/10 10:02:27;;;;;;;;;;;4.60;99.90;;;;;;5049460;28;19921;-68
2023/01/10 10:05:07;;;;;;;;;;;4.60;99.90;;;;;;5043476;28;19921;-67
2023/01/10 10:07:35;;;;;;;;;;;4.50;99.90;;;;;;5042711;27;19952;-67
2023/01/10 10:10:02;;;;;;;;;;;4.60;99.90;;;;;;5043056;28;19921;-67
2023/01/10 10:12:32;;;;;;;;;;;4.60;99.90;;;;;;5043671;27;19984;-67
2023/01/10 10:15:02;;;;;;;;;;;4.60;99.90;;;;;;5057996;27;19952;-68
2023/01/10 10:17:37;;;;;;;;;;;4.60;99.90;;;;;;5069233;28;19927;-68
2023/01/10 10:20:12;;;;;;;;;;;4.60;99.90;;;;;;5089884;27;19988;-68
2023/01/10 10:22:44;;;;;;;;;;;4.60;99.90;;;;;;5142871;27;19919;-69
2023/01/10 10:25:18;;;;;;;;;;;4.60;99.90;;;;;;5166161;27;19961;-68
2023/01/10 10:27:52;;;;;;;;;;;4.70;99.90;;;;;;5105630;27;19983;-69
2023/01/10 10:30:31;;;;;;;;;;;4.70;99.90;;;;;;5104544;27;19920;-68
2023/01/10 10:33:05;;;;;;;;;;;4.70;99.90;;;;;;5082847;28;19971;-68
2023/01/10 10:35:35;;;;;;;;;;;4.70;99.90;;;;;;5127345;27;20258;-68
2023/01/10 10:38:05;;;;;;;;;;;4.70;99.90;;;;;;5168558;27;20288;-68
2023/01/10 10:40:33;;;;;;;;;;;4.70;99.90;;;;;;5154159;27;20270;-68
2023/01/10 10:43:09;;;;;;;;;;;4.70;99.90;;;;;;5115805;27;20442;-68
2023/01/10 10:45:39;;;;;;;;;;;4.70;99.90;;;;;;5104299;27;20226;-68
2023/01/10 10:48:12;;;;;;;;;;;4.70;99.90;;;;;;5102765;27;19921;-69
2023/01/10 10:50:44;;;;;;;;;;;4.70;99.90;;;;;;5080211;27;19952;-68
2023/01/10 10:53:12;;;;;;;;;;;4.70;99.90;;;;;;5081327;27;19963;-68
2023/01/10 10:55:39;;;;;;;;;;;4.70;99.90;;;;;;5158506;27;19947;-68
2023/01/10 10:58:06;;;;;;;;;;;4.70;99.90;;;;;;5122319;27;19991;-69
2023/01/10 11:00:33;;;;;;;;;;;4.80;99.90;;;;;;5099567;27;19920;-68
2023/01/10 11:03:03;;;;;;;;;;;4.80;99.90;;;;;;5078008;27;19988;-69
2023/01/10 11:05:32;;;;;;;;;;;4.90;99.90;;;;;;5127648;27;19965;-68
2023/01/10 11:08:01;;;;;;;;;;;4.90;99.90;;;;;;5167144;27;19919;-69
2023/01/10 11:10:34;;;;;;;;;;;4.90;99.90;;;;;;5131898;27;19920;-69
2023/01/10 11:13:02;;;;;;;;;;;4.90;99.90;;;;;;5082327;28;19961;-68
2023/01/10 11:15:35;;;;;;;;;;;4.90;99.90;;;;;;5104604;27;20245;-68
2023/01/10 11:18:03;;;;;;;;;;;4.90;99.90;;;;;;5067908;27;19988;-69
2023/01/10 11:20:31;;;;;;;;;;;4.90;99.90;;;;;;5134104;27;19956;-68
2023/01/10 11:22:58;;;;;;;;;;;4.90;99.90;;;;;;5112269;27;20209;-68
2023/01/10 11:25:24;;;;;;;;;;;5.00;99.90;;;;;;5062881;27;19944;-68
2023/01/10 11:27:54;;;;;;;;;;;5.00;99.90;;;;;;5153411;27;19936;-69
2023/01/10 11:30:22;;;;;;;;;;;5.00;99.90;;;;;;5082275;28;19951;-69
2023/01/10 11:32:51;;;;;;;;;;;5.10;99.90;;;;;;5080037;27;20144;-68
2023/01/10 11:35:20;;;;;;;;;;;5.10;99.90;;;;;;5077941;27;20308;-67
2023/01/10 11:37:58;;;;;;;;;;;5.20;99.90;;;;;;5144179;27;19953;-68
2023/01/10 11:40:25;;;;;;;;;;;5.20;99.90;;;;;;5126533;27;19920;-68
2023/01/10 11:42:54;;;;;;;;;;;5.20;99.90;;;;;;5132054;27;19919;-68
2023/01/10 11:45:26;;;;;;;;;;;5.30;99.90;;;;;;5160443;27;19951;-68
2023/01/10 11:47:54;;;;;;;;;;;5.20;99.90;;;;;;5125184;27;19919;-68
2023/01/10 11:50:22;;;;;;;;;;;5.30;99.90;;;;;;5165964;27;19986;-68
2023/01/10 11:52:49;;;;;;;;;;;5.20;99.90;;;;;;5086722;27;19967;-67
2023/01/10 11:55:18;;;;;;;;;;;5.30;99.90;;;;;;5061571;27;20170;-68
2023/01/10 11:57:45;;;;;;;;;;;5.30;99.90;;;;;;5116300;27;19925;-68
2023/01/10 12:00:16;;;;;;;;;;;5.30;99.90;;;;;;5166549;27;19958;-68
2023/01/10 12:02:43;;;;;;;;;;;5.30;99.90;;;;;;5165811;27;20812;-68
2023/01/10 12:05:11;;;;;;;;;;;5.40;99.90;;;;;;5166366;27;19951;-70
2023/01/10 12:07:53;;;;;;;;;;;5.40;99.90;;;;;;5149992;27;19951;-68
2023/01/10 12:10:21;;;;;;;;;;;5.50;99.90;;;;;;5088894;27;20263;-68
2023/01/10 12:12:52;;;;;;;;;;;5.50;99.90;;;;;;5166294;27;19919;-70
2023/01/10 12:15:24;;;;;;;;;;;5.50;99.90;;;;;;5125607;27;19984;-69
2023/01/10 12:17:52;;;;;;;;;;;5.40;99.90;;;;;;5066191;27;19927;-69
2023/01/10 12:20:19;;;;;;;;;;;5.40;99.90;;;;;;5064446;27;19921;-68
2023/01/10 12:22:47;;;;;;;;;;;5.20;99.90;;;;;;5082308;27;20252;-71
2023/01/10 12:25:18;;;;;;;;;;;5.20;99.90;;;;;;5080666;27;20410;-67
2023/01/10 12:27:48;;;;;;;;;;;5.20;99.90;;;;;;5080098;28;19987;-68
2023/01/10 12:30:17;;;;;;;;;;;5.20;99.90;;;;;;5080780;28;19981;-71
2023/01/10 12:32:51;;;;;;;;;;;5.20;99.90;;;;;;5054125;28;20225;-71
2023/01/10 12:35:19;;;;;;;;;;;5.20;99.90;;;;;;5051732;28;19985;-70
2023/01/10 12:37:47;;;;;;;;;;;5.30;99.90;;;;;;5040140;28;19948;-70
2023/01/10 12:40:16;;;;;;;;;;;5.30;99.90;;;;;;5042435;28;20110;-70
2023/01/10 12:45:48;;;;;;;;;;;5.30;99.90;;;;;;5102007;28;19916;-70
2023/01/10 12:48:22;;;;;;;;;;;5.30;99.90;;;;;;5070521;28;19990;-70
2023/01/10 12:50:52;;;;;;;;;;;5.20;99.90;;;;;;5060161;27;20258;-70
2023/01/10 12:53:24;;;;;;;;;;;5.10;99.90;;;;;;5060704;27;20166;-70
2023/01/10 12:56:03;;;;;;;;;;;5.10;99.90;;;;;;5059580;28;20050;-70
2023/01/10 12:58:34;;;;;;;;;;;5.10;99.90;;;;;;5061004;27;20141;-70
2023/01/10 13:01:02;;;;;;;;;;;5.10;99.90;;;;;;5061025;28;19941;-71
2023/01/10 13:03:31;;;;;;;;;;;5.10;99.90;;;;;;5060988;28;19920;-70
2023/01/10 13:05:58;;;;;;;;;;;5.20;99.90;;;;;;5060353;27;20393;-67
2023/01/10 13:08:27;;;;;;;;;;;5.10;99.90;;;;;;5060670;27;19952;-67
2023/01/10 13:10:54;;;;;;;;;;;5.10;99.90;;;;;;5060638;27;19984;-70
2023/01/10 13:13:26;;;;;;;;;;;5.20;99.90;;;;;;5060828;27;19995;-71
2023/01/10 13:15:53;;;;;;;;;;;5.30;99.90;;;;;;5059722;28;19921;-68
2023/01/10 13:18:25;;;;;;;;;;;5.40;99.90;;;;;;5059733;28;19948;-69
2023/01/10 13:21:03;;;;;;;;;;;5.50;99.90;;;;;;5060896;27;19927;-70
2023/01/10 13:23:32;;;;;;;;;;;5.60;99.90;;;;;;5060694;27;19920;-71
2023/01/10 13:26:04;;;;;;;;;;;5.50;99.90;;;;;;5049003;27;19921;-70
2023/01/10 13:28:32;;;;;;;;;;;5.50;99.90;;;;;;5047398;27;20208;-70
2023/01/10 13:31:00;;;;;;;;;;;5.50;99.90;;;;;;5060148;28;19921;-70
2023/01/10 13:33:28;;;;;;;;;;;5.50;99.90;;;;;;5050669;28;19929;-70
2023/01/10 13:35:57;;;;;;;;;;;5.50;99.90;;;;;;5040368;28;19988;-70
2023/01/10 13:38:30;;;;;;;;;;;5.60;99.90;;;;;;5040161;28;19984;-71
2023/01/10 13:40:58;;;;;;;;;;;5.70;99.90;;;;;;5041027;28;19988;-70
2023/01/10 13:43:33;;;;;;;;;;;5.70;99.90;;;;;;5060524;27;19952;-69
2023/01/10 13:46:18;;;;;;;;;;;5.60;99.90;;;;;;5059839;27;19917;-69
2023/01/10 13:49:15;;;;;;;;;;;5.50;99.90;;;;;;5059516;28;20205;-70
2023/01/10 13:51:57;;;;;;;;;;;5.50;99.90;;;;;;5040291;28;19960;-69
2023/01/10 13:54:26;;;;;;;;;;;5.40;99.90;;;;;;5041000;28;19928;-67
2023/01/10 13:56:53;;;;;;;;;;;5.40;99.90;;;;;;5040013;28;19943;-67
2023/01/10 14:02:30;;;;;;;;;;;5.40;99.90;;;;;;5091036;27;19917;-69
2023/01/10 14:04:57;;;;;;;;;;;5.20;99.90;;;;;;5059927;27;20117;-70
2023/01/10 14:07:27;;;;;;;;;;;5.20;99.90;;;;;;5051481;27;19953;-70
2023/01/10 14:09:58;;;;;;;;;;;5.20;99.90;;;;;;5048265;27;19932;-69
2023/01/10 14:12:28;;;;;;;;;;;5.20;99.90;;;;;;5039999;28;19956;-69
2023/01/10 14:14:57;;;;;;;;;;;5.10;99.90;;;;;;5040396;28;19928;-70
2023/01/10 14:17:25;;;;;;;;;;;5.10;99.90;;;;;;5039353;28;19928;-69
2023/01/10 14:20:03;;;;;;;;;;;5.00;99.90;;;;;;5039856;28;19928;-70
2023/01/10 14:22:31;;;;;;;;;;;5.00;99.90;;;;;;5039703;28;19947;-70
2023/01/10 14:25:01;;;;;;;;;;;5.00;99.90;;;;;;5040117;28;19992;-70
2023/01/10 14:27:31;;;;;;;;;;;5.00;99.90;;;;;;5040736;28;19927;-69
2023/01/10 14:29:59;;;;;;;;;;;4.90;99.90;;;;;;5043349;28;19984;-69
2023/01/10 14:32:30;;;;;;;;;;;4.90;99.90;;;;;;5042810;28;19987;-69
2023/01/10 14:34:57;;;;;;;;;;;4.90;99.90;;;;;;5043014;28;19961;-69
2023/01/10 14:37:27;;;;;;;;;;;4.80;99.90;;;;;;5043051;28;19943;-70
2023/01/10 14:39:55;;;;;;;;;;;4.70;99.90;;;;;;5042790;28;20225;-69
2023/01/10 14:42:24;;;;;;;;;;;4.70;99.90;;;;;;5042984;28;19928;-70
2023/01/10 14:44:57;;;;;;;;;;;4.60;99.90;;;;;;5042907;28;19927;-70
2023/01/10 14:47:29;;;;;;;;;;;4.60;99.90;;;;;;5042647;28;20055;-70
2023/01/10 14:49:58;;;;;;;;;;;4.60;99.90;;;;;;5046154;28;20329;-70
2023/01/10 14:52:25;;;;;;;;;;;4.60;99.90;;;;;;5063115;27;19925;-67
2023/01/10 14:55:02;;;;;;;;;;;4.60;99.90;;;;;;5062662;27;19983;-70
2023/01/10 14:57:30;;;;;;;;;;;4.60;99.90;;;;;;5062693;27;19921;-69